Time;durP1;ratioP1;P1;durP2;ratioP2;P2;SDS_P1;SDS_P2;PMS_P1;PMS_P2;Temp;Humidity;BMP_temperature;BMP_pressure;BME280_temperature;BME280_humidity;BME280_pressure;Samples;Min_cycle;Max_cycle;Signal;HPM_P1;HPM_P2
2023/03/16 00:01:10;;;;;;;8.88;4.45;;;;;;;4.43;97.63;101749.81;6138490;23;20025;-69
2023/03/16 00:03:36;;;;;;;5.97;3.85;;;;;;;4.35;98.09;101747.34;6138624;23;20383;-70
2023/03/16 00:06:02;;;;;;;8.07;3.85;;;;;;;4.52;94.97;101741.66;6139084;22;20071;-70
2023/03/16 00:08:28;;;;;;;7.53;3.72;;;;;;;4.55;95.02;101739.81;6138754;23;20025;-70
2023/03/16 00:10:53;;;;;;;17.52;5.00;;;;;;;4.57;94.95;101738.03;6138443;22;20025;-69
2023/03/16 00:13:24;;;;;;;7.35;4.43;;;;;;;4.72;92.53;101736.78;6138591;22;20098;-68
2023/03/16 00:15:51;;;;;;;8.77;3.75;;;;;;;4.62;93.48;101743.19;6137617;23;20028;-67
2023/03/16 00:18:17;;;;;;;7.07;5.22;;;;;;;4.69;92.95;101742.13;6138271;23;20017;-68
2023/03/16 00:20:43;;;;;;;11.20;4.03;;;;;;;4.73;93.89;101743.81;6138261;23;20397;-69
2023/03/16 00:23:08;;;;;;;8.07;3.55;;;;;;;4.75;94.07;101738.47;6138652;22;20028;-71
2023/03/16 00:25:33;;;;;;;9.85;4.50;;;;;;;4.55;95.28;101749.53;6139045;23;20408;-70
2023/03/16 00:28:02;;;;;;;6.78;4.05;;;;;;;4.73;93.21;101756.16;6138275;22;20024;-69
2023/03/16 00:30:29;;;;;;;6.43;4.07;;;;;;;4.74;92.89;101756.09;6112505;23;20440;-69
2023/03/16 00:32:54;;;;;;;4.63;3.75;;;;;;;4.77;94.14;101761.31;6138828;23;20030;-69
2023/03/16 00:35:20;;;;;;;9.80;3.53;;;;;;;4.78;93.54;101756.91;6267333;22;20021;-70
2023/03/16 00:37:46;;;;;;;4.40;3.55;;;;;;;4.78;94.44;101741.06;6267155;22;20021;-68
2023/03/16 00:40:11;;;;;;;7.50;4.10;;;;;;;4.85;94.48;101732.03;6266906;22;20021;-69
2023/03/16 00:42:37;;;;;;;5.07;3.53;;;;;;;4.85;94.97;101734.69;6137880;23;20072;-69
2023/03/16 00:45:04;;;;;;;7.75;4.45;;;;;;;4.70;95.49;101733.28;6112599;23;20033;-70
2023/03/16 00:47:31;;;;;;;8.45;4.13;;;;;;;4.84;95.79;101731.19;6138809;23;20021;-68
2023/03/16 00:49:58;;;;;;;6.15;4.18;;;;;;;4.82;95.44;101733.00;6112269;23;20082;-70
2023/03/16 00:52:26;;;;;;;10.65;4.65;;;;;;;4.84;96.48;101720.63;6138847;23;20440;-70
2023/03/16 00:54:51;;;;;;;5.57;3.70;;;;;;;4.76;96.62;101712.00;6138032;23;20546;-70
2023/03/16 00:57:18;;;;;;;8.63;3.60;;;;;;;4.73;96.44;101716.53;6138357;23;20014;-68
2023/03/16 00:59:44;;;;;;;7.00;4.18;;;;;;;4.65;96.77;101714.91;6138739;23;20022;-70
2023/03/16 01:02:11;;;;;;;8.55;4.28;;;;;;;4.62;97.48;101700.94;6112035;23;20479;-70
2023/03/16 01:04:38;;;;;;;12.98;5.43;;;;;;;4.64;98.16;101699.13;6138409;22;20097;-68
2023/03/16 01:07:06;;;;;;;9.43;4.55;;;;;;;4.67;98.64;101697.28;6111032;23;20014;-68
2023/03/16 01:09:35;;;;;;;7.57;4.40;;;;;;;4.71;98.00;101694.53;6138551;23;20014;-68
2023/03/16 01:12:06;;;;;;;7.28;4.50;;;;;;;4.55;98.90;101688.78;6261436;22;20022;-68
2023/03/16 01:14:34;;;;;;;4.85;3.45;;;;;;;4.53;99.88;101683.53;6105724;23;20022;-69
2023/03/16 01:17:00;;;;;;;9.25;3.90;;;;;;;4.54;98.30;101682.63;6106552;23;20022;-68
2023/03/16 01:19:35;;;;;;;7.65;3.95;;;;;;;4.54;98.81;101687.03;6108605;23;20395;-67
2023/03/16 01:22:07;;;;;;;8.02;4.43;;;;;;;4.62;98.10;101690.38;6106636;23;20117;-69
2023/03/16 01:24:36;;;;;;;9.07;4.30;;;;;;;4.46;97.20;101683.72;6106659;23;20018;-73
2023/03/16 01:27:03;;;;;;;8.18;4.35;;;;;;;4.52;96.67;101686.19;6108120;23;20018;-67
2023/03/16 01:29:29;;;;;;;8.23;4.72;;;;;;;4.55;96.55;101688.78;6108310;23;20064;-69
2023/03/16 01:31:56;;;;;;;7.72;4.30;;;;;;;4.51;98.42;101674.78;6106240;23;20022;-68
2023/03/16 01:34:22;;;;;;;9.70;3.97;;;;;;;4.54;96.81;101682.63;6106128;23;20029;-67
2023/03/16 01:36:49;;;;;;;6.47;4.40;;;;;;;4.65;96.78;101677.06;6108471;23;20107;-68
2023/03/16 01:39:23;;;;;;;7.97;4.38;;;;;;;4.43;98.12;101670.59;6106288;23;20033;-69
2023/03/16 01:41:48;;;;;;;7.05;4.55;;;;;;;4.53;97.34;101661.53;6106454;23;20026;-67
2023/03/16 01:44:27;;;;;;;12.00;3.72;;;;;;;4.52;97.21;101655.41;6082067;23;20033;-69
2023/03/16 01:46:52;;;;;;;15.52;4.68;;;;;;;4.65;97.40;101661.22;6106513;23;20032;-69
2023/03/16 01:49:28;;;;;;;12.38;4.60;;;;;;;4.52;99.27;101650.13;6107464;23;20021;-69
2023/03/16 01:52:03;;;;;;;9.25;4.70;;;;;;;4.55;98.21;101643.88;6106560;23;20018;-68
2023/03/16 01:54:34;;;;;;;13.82;5.25;;;;;;;4.55;99.97;101646.50;6106934;23;20069;-68
2023/03/16 01:57:14;;;;;;;9.25;4.70;;;;;;;4.57;99.52;101642.94;6106775;23;20018;-69
2023/03/16 01:59:49;;;;;;;13.77;5.00;;;;;;;4.45;100.00;101647.66;6106366;23;20037;-68
2023/03/16 02:02:17;;;;;;;10.50;4.60;;;;;;;4.48;100.00;101645.81;6105806;23;20453;-68
2023/03/16 02:04:45;;;;;;;12.63;4.50;;;;;;;4.52;100.00;101641.28;6108185;23;20022;-70
2023/03/16 02:07:16;;;;;;;10.15;4.63;;;;;;;4.41;100.00;101625.72;6081909;23;20025;-68
2023/03/16 02:09:48;;;;;;;8.65;4.25;;;;;;;4.39;100.00;101625.78;6105769;23;20049;-67
2023/03/16 02:12:17;;;;;;;7.45;3.65;;;;;;;4.32;100.00;101628.63;6123654;23;20035;-68
2023/03/16 02:14:47;;;;;;;9.20;5.03;;;;;;;4.50;100.00;101633.44;6111771;23;20017;-67
2023/03/16 02:17:15;;;;;;;8.95;4.40;;;;;;;4.46;100.00;101631.75;6265633;22;20018;-68
2023/03/16 02:20:10;;;;;;;9.07;4.68;;;;;;;4.35;100.00;101624.13;6111658;23;20112;-69
2023/03/16 02:22:45;;;;;;;8.40;4.20;;;;;;;4.38;100.00;101617.91;6227314;22;20087;-70
2023/03/16 02:25:14;;;;;;;8.25;4.72;;;;;;;4.38;100.00;101624.06;6136406;23;20531;-69
2023/03/16 02:27:48;;;;;;;8.85;3.90;;;;;;;4.42;100.00;101619.56;6265194;22;20028;-70
2023/03/16 02:30:16;;;;;;;7.53;4.70;;;;;;;4.32;100.00;101613.66;6265621;22;20021;-69
2023/03/16 02:32:54;;;;;;;6.93;4.07;;;;;;;4.44;100.00;101612.47;6110055;23;20067;-71
2023/03/16 02:35:21;;;;;;;9.73;3.67;;;;;;;4.31;100.00;101609.25;6137233;23;20436;-67
2023/03/16 02:37:47;;;;;;;8.05;4.18;;;;;;;4.41;100.00;101607.25;6264488;22;20022;-67
2023/03/16 02:40:27;;;;;;;10.57;4.13;;;;;;;4.46;100.00;101599.22;6137314;23;20018;-68
2023/03/16 02:43:02;;;;;;;9.43;5.13;;;;;;;4.48;100.00;101606.19;6110454;23;20025;-68
2023/03/16 02:45:41;;;;;;;9.38;4.93;;;;;;;4.37;100.00;101602.97;6109505;23;20025;-68
2023/03/16 02:48:13;;;;;;;8.35;4.38;;;;;;;4.41;100.00;101600.19;6137054;23;20017;-68
2023/03/16 02:50:47;;;;;;;7.13;4.00;;;;;;;4.53;100.00;101592.88;6109236;23;20017;-68
2023/03/16 02:53:13;;;;;;;8.63;4.20;;;;;;;4.59;100.00;101595.34;6109726;23;20022;-68
2023/03/16 02:55:39;;;;;;;7.28;4.47;;;;;;;4.56;100.00;101595.41;6263484;22;20028;-68
2023/03/16 02:58:04;;;;;;;10.00;4.72;;;;;;;4.46;100.00;101588.66;6136165;22;20087;-70
2023/03/16 03:00:31;;;;;;;7.05;3.78;;;;;;;4.41;100.00;101594.03;6265398;22;20374;-69
2023/03/16 03:02:57;;;;;;;8.18;4.43;;;;;;;4.60;100.00;101591.81;6136629;23;20452;-67
2023/03/16 03:05:23;;;;;;;7.22;4.20;;;;;;;4.50;100.00;101579.75;6136490;23;20013;-67
2023/03/16 03:07:50;;;;;;;6.97;4.20;;;;;;;4.47;100.00;101579.81;6085605;23;20021;-70
2023/03/16 03:10:16;;;;;;;9.52;4.50;;;;;;;4.49;100.00;101573.59;6109846;23;20018;-69
2023/03/16 03:12:41;;;;;;;6.10;4.32;;;;;;;4.53;100.00;101584.97;6136738;23;20028;-67
2023/03/16 03:15:08;;;;;;;14.50;4.60;;;;;;;4.75;100.00;101575.53;6136654;23;20028;-69
2023/03/16 03:17:43;;;;;;;9.48;4.47;;;;;;;4.66;100.00;101579.28;6264595;22;20025;-70
2023/03/16 03:20:16;;;;;;;8.80;4.53;;;;;;;4.62;100.00;101577.66;6264083;22;20027;-68
2023/03/16 03:22:45;;;;;;;9.30;4.47;;;;;;;4.64;100.00;101577.59;6109824;23;20100;-70
2023/03/16 03:25:14;;;;;;;9.75;5.40;;;;;;;4.60;100.00;101578.59;6137088;22;20030;-69
2023/03/16 03:27:41;;;;;;;8.07;4.43;;;;;;;4.62;100.00;101577.66;6136797;23;20673;-70
2023/03/16 03:30:11;;;;;;;11.52;5.35;;;;;;;4.65;100.00;101574.91;6134480;23;20041;-69
2023/03/16 03:32:37;;;;;;;7.43;4.40;;;;;;;4.68;100.00;101576.63;6109156;23;20022;-69
2023/03/16 03:35:04;;;;;;;7.85;4.90;;;;;;;4.71;100.00;101568.59;6136055;23;20082;-69
2023/03/16 03:37:30;;;;;;;8.38;4.80;;;;;;;4.64;100.00;101574.97;6135786;23;20069;-67
2023/03/16 03:39:55;;;;;;;7.88;4.55;;;;;;;4.74;100.00;101576.44;6109451;23;20017;-68
2023/03/16 03:42:22;;;;;;;10.45;5.05;;;;;;;4.66;100.00;101573.13;6109558;23;20776;-69
2023/03/16 03:44:50;;;;;;;9.80;5.32;;;;;;;4.81;100.00;101578.00;6264220;22;20045;-68
2023/03/16 03:47:16;;;;;;;9.52;5.88;;;;;;;4.80;100.00;101564.84;6135245;23;20010;-68
2023/03/16 03:49:41;;;;;;;11.23;5.00;;;;;;;4.84;100.00;101572.63;6110736;23;20022;-69
2023/03/16 03:52:07;;;;;;;9.35;5.18;;;;;;;4.95;100.00;101561.75;6110749;23;20017;-71
2023/03/16 03:54:33;;;;;;;11.00;4.65;;;;;;;4.80;100.00;101565.69;6110373;23;20024;-69
2023/03/16 03:57:04;;;;;;;10.32;4.80;;;;;;;4.72;100.00;101561.53;6137128;23;20017;-70
2023/03/16 03:59:29;;;;;;;7.43;4.35;;;;;;;4.77;100.00;101560.53;6137402;22;20028;-70
2023/03/16 04:02:20;;;;;;;15.30;4.30;;;;;;;4.72;100.00;101561.53;6264584;22;20107;-68
2023/03/16 04:04:53;;;;;;;9.20;4.57;;;;;;;4.77;100.00;101562.28;6137490;22;20055;-67
2023/03/16 04:07:18;;;;;;;9.43;5.25;;;;;;;4.92;100.00;101557.44;6136230;23;20017;-67
2023/03/16 04:09:45;;;;;;;9.45;5.03;;;;;;;4.82;100.00;101558.63;6264459;22;20018;-68
2023/03/16 04:12:22;;;;;;;9.77;4.55;;;;;;;4.76;100.00;101555.25;6104522;23;20018;-68
2023/03/16 04:14:47;;;;;;;11.52;4.25;;;;;;;4.82;100.00;101555.97;6104892;23;20054;-69
2023/03/16 04:17:14;;;;;;;12.68;4.68;;;;;;;4.77;100.00;101547.31;6104819;23;20029;-70
2023/03/16 04:19:40;;;;;;;8.80;4.97;;;;;;;4.81;100.00;101542.78;6106143;23;20010;-69
2023/03/16 04:22:11;;;;;;;9.98;5.13;;;;;;;4.89;100.00;101546.97;6081715;23;20037;-69
2023/03/16 04:24:37;;;;;;;17.23;5.53;;;;;;;4.61;100.00;101548.63;6104995;23;20025;-68
2023/03/16 04:27:03;;;;;;;7.95;5.15;;;;;;;4.57;100.00;101545.22;6105110;23;20076;-69
2023/03/16 04:29:28;;;;;;;9.88;5.15;;;;;;;4.60;100.00;101542.47;6105289;23;20122;-68
2023/03/16 04:31:56;;;;;;;7.03;4.82;;;;;;;4.52;100.00;101540.94;6105743;23;20127;-75
2023/03/16 04:34:24;;;;;;;10.20;5.45;;;;;;;4.51;100.00;101548.00;6105000;23;20018;-68
2023/03/16 04:36:53;;;;;;;7.80;4.38;;;;;;;4.44;100.00;101548.22;6105454;23;20025;-69
2023/03/16 04:39:22;;;;;;;9.25;4.75;;;;;;;4.62;100.00;101543.31;6105385;23;20026;-70
2023/03/16 04:41:48;;;;;;;9.65;4.22;;;;;;;4.50;100.00;101538.34;6107876;23;20025;-69
2023/03/16 04:44:18;;;;;;;11.18;4.88;;;;;;;4.57;100.00;101541.72;6104974;23;20372;-69
2023/03/16 04:46:44;;;;;;;9.63;5.00;;;;;;;4.73;100.00;101534.22;6104879;23;20025;-70
2023/03/16 04:49:10;;;;;;;9.02;4.60;;;;;;;4.71;100.00;101536.03;6080815;23;20419;-68
2023/03/16 04:51:39;;;;;;;11.40;4.70;;;;;;;4.50;100.00;101534.84;6106961;23;20398;-70
2023/03/16 04:54:08;;;;;;;12.18;5.45;;;;;;;4.73;100.00;101528.94;6105393;23;20018;-70
2023/03/16 04:56:40;;;;;;;8.75;5.10;;;;;;;4.54;100.00;101539.16;6104481;23;20010;-70
2023/03/16 04:59:08;;;;;;;10.02;5.25;;;;;;;4.52;100.00;101527.75;6105281;23;20029;-70
2023/03/16 05:01:52;;;;;;;8.55;4.80;;;;;;;4.62;100.00;101522.19;6103745;23;20029;-69
2023/03/16 05:04:20;;;;;;;8.02;4.25;;;;;;;4.54;100.00;101524.16;6105332;23;20136;-70
2023/03/16 05:06:47;;;;;;;9.45;5.35;;;;;;;4.27;100.00;101522.28;6104011;23;20056;-69
2023/03/16 05:11:42;;;;;;;10.88;4.93;;;;;;;4.47;100.00;101516.44;6104594;23;20121;-69
2023/03/16 05:14:10;;;;;;;8.18;5.03;;;;;;;4.46;100.00;101518.22;6077979;23;20436;-70
2023/03/16 05:16:51;;;;;;;8.88;4.55;;;;;;;4.28;100.00;101524.00;6079274;23;20558;-70
2023/03/16 05:19:17;;;;;;;10.88;5.63;;;;;;;4.28;100.00;101513.44;6079934;23;20022;-69
2023/03/16 05:21:44;;;;;;;8.98;4.88;;;;;;;4.36;100.00;101514.97;6106011;23;20097;-68
2023/03/16 05:24:11;;;;;;;9.82;4.57;;;;;;;4.52;100.00;101519.81;6079577;23;20033;-67
2023/03/16 05:26:37;;;;;;;8.18;4.50;;;;;;;4.54;100.00;101518.03;6079972;23;20052;-69
2023/03/16 05:29:07;;;;;;;9.13;4.72;;;;;;;4.52;100.00;101514.53;6104765;23;20026;-69
2023/03/16 05:31:33;;;;;;;8.82;4.85;;;;;;;4.53;100.00;101517.16;6104648;23;20025;-68
2023/03/16 05:34:01;;;;;;;10.68;4.93;;;;;;;4.53;100.00;101518.94;6127711;23;20744;-69
2023/03/16 05:36:27;;;;;;;8.77;4.95;;;;;;;4.62;100.00;101527.47;6129412;23;20021;-69
2023/03/16 05:38:58;;;;;;;10.80;5.10;;;;;;;4.66;100.00;101528.22;6086170;23;20157;-69
2023/03/16 05:41:36;;;;;;;9.15;4.28;;;;;;;4.58;100.00;101517.91;6109604;23;20017;-70
2023/03/16 05:44:16;;;;;;;10.07;4.95;;;;;;;4.74;100.00;101520.97;6109954;23;20018;-69
2023/03/16 05:47:00;;;;;;;11.82;4.93;;;;;;;4.71;100.00;101514.91;6135860;23;20586;-69
2023/03/16 05:49:27;;;;;;;9.63;4.57;;;;;;;4.84;100.00;101517.16;6109998;23;20021;-68
2023/03/16 05:51:53;;;;;;;9.85;5.35;;;;;;;4.80;100.00;101517.28;6110639;23;20022;-67
2023/03/16 05:54:18;;;;;;;8.13;4.90;;;;;;;4.86;100.00;101502.09;6237529;22;20025;-68
2023/03/16 05:56:46;;;;;;;7.85;4.70;;;;;;;4.89;100.00;101502.03;6133400;23;20083;-68
2023/03/16 05:59:13;;;;;;;7.63;4.50;;;;;;;4.58;100.00;101509.09;6108691;23;20056;-70
2023/03/16 06:01:39;;;;;;;8.07;4.60;;;;;;;4.83;100.00;101510.16;6108115;23;20017;-70
2023/03/16 06:04:06;;;;;;;8.88;4.55;;;;;;;4.81;100.00;101504.03;6132522;22;20021;-68
2023/03/16 06:06:34;;;;;;;7.38;4.75;;;;;;;4.92;100.00;101506.38;6236590;22;20017;-66
2023/03/16 06:09:09;;;;;;;7.38;4.28;;;;;;;4.93;100.00;101503.69;6132171;23;20116;-67
2023/03/16 06:11:34;;;;;;;9.55;4.60;;;;;;;5.17;100.00;101514.41;6108049;23;20043;-66
2023/03/16 06:14:00;;;;;;;8.30;4.20;;;;;;;5.17;100.00;101511.78;6106768;23;20040;-68
2023/03/16 06:16:25;;;;;;;12.45;6.07;;;;;;;5.13;100.00;101507.50;6131292;23;20067;-67
2023/03/16 06:18:51;;;;;;;11.02;4.75;;;;;;;5.10;100.00;101503.16;6107298;23;20087;-68
2023/03/16 06:21:16;;;;;;;9.93;5.13;;;;;;;5.23;100.00;101505.47;6106936;23;20716;-66
2023/03/16 06:23:44;;;;;;;8.23;5.13;;;;;;;5.15;100.00;101509.19;6108308;23;20021;-68
2023/03/16 06:26:10;;;;;;;7.57;4.20;;;;;;;5.13;100.00;101504.88;6083406;23;20024;-68
2023/03/16 06:28:39;;;;;;;11.13;4.60;;;;;;;5.20;100.00;101506.41;6109084;23;20045;-70
2023/03/16 06:31:04;;;;;;;9.25;4.80;;;;;;;5.44;100.00;101496.84;6108105;23;20021;-67
2023/03/16 06:33:33;;;;;;;10.20;4.30;;;;;;;5.38;100.00;101495.28;6108518;23;20086;-66
2023/03/16 06:35:58;;;;;;;9.25;4.78;;;;;;;5.43;100.00;101497.78;6133031;23;20790;-67
2023/03/16 06:38:34;;;;;;;10.90;5.38;;;;;;;5.28;100.00;101483.25;6108831;23;20025;-68
2023/03/16 06:41:02;;;;;;;7.35;4.15;;;;;;;5.35;100.00;101495.34;6108280;23;20105;-68
2023/03/16 06:43:30;;;;;;;9.95;4.80;;;;;;;5.52;100.00;101492.16;6084163;23;20021;-70
2023/03/16 06:45:57;;;;;;;8.35;5.05;;;;;;;5.59;100.00;101491.06;6109233;23;20048;-69
2023/03/16 06:48:23;;;;;;;8.75;5.05;;;;;;;5.46;100.00;101501.16;6235937;22;20022;-68
2023/03/16 06:50:48;;;;;;;7.85;4.47;;;;;;;5.30;100.00;101492.00;6133716;23;20459;-68
2023/03/16 06:53:20;;;;;;;7.90;4.75;;;;;;;5.49;100.00;101488.78;6108935;23;20028;-69
2023/03/16 06:55:46;;;;;;;9.05;4.70;;;;;;;5.41;100.00;101495.16;6109021;23;20053;-69
2023/03/16 06:58:12;;;;;;;8.27;4.90;;;;;;;5.49;100.00;101502.00;6110007;23;20714;-68
2023/03/16 07:00:37;;;;;;;12.52;5.65;;;;;;;5.43;100.00;101493.34;6133234;23;20022;-68
2023/03/16 07:03:03;;;;;;;8.68;5.03;;;;;;;5.51;100.00;101498.38;6134020;23;20044;-68
2023/03/16 07:05:30;;;;;;;7.70;4.93;;;;;;;5.54;100.00;101500.06;6109586;23;20822;-69
2023/03/16 07:07:57;;;;;;;8.98;4.90;;;;;;;5.48;100.00;101500.28;6260732;22;20503;-69
2023/03/16 07:10:24;;;;;;;11.90;5.18;;;;;;;5.48;100.00;101505.56;6260987;22;20483;-69
2023/03/16 07:12:49;;;;;;;6.53;4.10;;;;;;;5.62;100.00;101511.25;6261749;22;20673;-69
2023/03/16 07:15:15;;;;;;;7.80;4.30;;;;;;;5.46;100.00;101509.09;6290412;22;20015;-67
2023/03/16 07:17:41;;;;;;;8.82;4.65;;;;;;;5.58;100.00;101510.50;6291074;22;20019;-69
2023/03/16 07:20:09;;;;;;;13.10;4.57;;;;;;;5.49;100.00;101500.22;6261866;22;20015;-70
2023/03/16 07:22:36;;;;;;;12.93;5.63;;;;;;;5.70;100.00;101515.41;6261948;22;20098;-70
2023/03/16 07:25:05;;;;;;;10.38;4.95;;;;;;;5.68;100.00;101517.25;6264246;22;20019;-67
2023/03/16 07:27:30;;;;;;;12.38;5.78;;;;;;;5.67;100.00;101512.88;6265560;22;20073;-69
2023/03/16 07:29:59;;;;;;;12.25;6.22;;;;;;;5.86;100.00;101501.66;6263674;22;20019;-67
2023/03/16 07:32:24;;;;;;;12.38;4.95;;;;;;;5.96;100.00;101500.47;6264120;22;20026;-69
2023/03/16 07:34:50;;;;;;;9.85;4.90;;;;;;;5.71;100.00;101508.31;6265076;22;20434;-68
2023/03/16 07:37:16;;;;;;;10.90;4.97;;;;;;;6.15;100.00;101500.72;6264334;22;20057;-69
2023/03/16 07:39:43;;;;;;;11.45;6.03;;;;;;;6.37;100.00;101506.97;6292441;22;20720;-69
2023/03/16 07:42:16;;;;;;;9.13;5.13;;;;;;;6.54;100.00;101503.75;6264620;22;20120;-70
2023/03/16 07:45:16;;;;;;;8.48;4.65;;;;;;;6.57;100.00;101516.00;6264907;22;20128;-68
2023/03/16 07:47:43;;;;;;;7.93;5.30;;;;;;;6.58;100.00;101507.16;6263456;22;20015;-71
2023/03/16 07:50:18;;;;;;;13.93;5.72;;;;;;;6.31;100.00;101514.28;6263980;22;20070;-68
2023/03/16 07:52:45;;;;;;;8.75;5.43;;;;;;;6.35;100.00;101503.53;6264559;22;20054;-69
2023/03/16 07:55:11;;;;;;;10.30;5.07;;;;;;;6.05;100.00;101501.94;6292649;22;20401;-70
2023/03/16 07:57:38;;;;;;;11.32;4.70;;;;;;;6.09;100.00;101504.44;6264895;22;20062;-70
2023/03/16 08:00:06;;;;;;;8.23;4.85;;;;;;;6.12;100.00;101501.66;6264163;22;20030;-67
2023/03/16 08:02:38;;;;;;;9.77;5.30;;;;;;;6.32;100.00;101495.69;6291266;22;20678;-70
2023/03/16 08:05:05;;;;;;;11.23;5.43;;;;;;;5.90;100.00;101498.88;6262382;22;20107;-68
2023/03/16 08:07:31;;;;;;;7.55;4.95;;;;;;;6.02;100.00;101505.56;6263763;22;20015;-68
2023/03/16 08:10:06;;;;;;;13.13;5.70;;;;;;;6.21;100.00;101503.16;6263966;22;20026;-68
2023/03/16 08:12:40;;;;;;;11.10;5.63;;;;;;;5.88;100.00;101508.66;6264143;22;20864;-69
2023/03/16 08:15:07;;;;;;;11.27;5.30;;;;;;;6.07;100.00;101506.25;6263928;22;20018;-68
2023/03/16 08:17:33;;;;;;;10.05;4.65;;;;;;;6.06;100.00;101507.19;6264523;22;20019;-68
2023/03/16 08:20:07;;;;;;;10.35;4.97;;;;;;;5.87;100.00;101509.56;6264625;22;20101;-69
2023/03/16 08:22:35;;;;;;;10.60;5.03;;;;;;;6.08;100.00;101504.50;6238056;22;20027;-69
2023/03/16 08:25:02;;;;;;;12.38;5.82;;;;;;;5.95;100.00;101510.19;6264194;22;20102;-69
2023/03/16 08:27:28;;;;;;;17.92;5.55;;;;;;;5.92;100.00;101509.41;6264180;22;20034;-68
2023/03/16 08:29:57;;;;;;;9.60;5.50;;;;;;;5.90;100.00;101509.44;6264237;22;20103;-69
2023/03/16 08:32:24;;;;;;;9.98;5.55;;;;;;;5.85;100.00;101503.44;6263639;22;20635;-70
2023/03/16 08:34:51;;;;;;;8.93;4.38;;;;;;;6.06;100.00;101501.03;6264098;22;20015;-69
2023/03/16 08:37:17;;;;;;;9.30;4.90;;;;;;;5.91;100.00;101507.66;6263746;22;20026;-68
2023/03/16 08:39:44;;;;;;;11.38;5.03;;;;;;;6.31;100.00;101501.91;6264469;22;20041;-68
2023/03/16 08:42:15;;;;;;;11.88;5.65;;;;;;;6.07;100.00;101500.97;6264542;22;20121;-69
2023/03/16 08:44:47;;;;;;;12.30;5.93;;;;;;;6.12;100.00;101501.66;6264688;22;20015;-69
2023/03/16 08:47:13;;;;;;;18.45;5.90;;;;;;;6.28;100.00;101507.31;6238732;22;20027;-69
2023/03/16 08:49:41;;;;;;;13.95;5.65;;;;;;;6.22;100.00;101504.88;6238051;22;20039;-69
2023/03/16 08:52:11;;;;;;;13.23;5.47;;;;;;;6.65;100.00;101498.91;6262734;22;20448;-69
2023/03/16 08:54:37;;;;;;;10.07;5.45;;;;;;;6.77;100.00;101488.78;6292157;22;20018;-70
2023/03/16 08:57:03;;;;;;;9.40;5.72;;;;;;;6.76;100.00;101485.28;6292292;22;20157;-70
2023/03/16 08:59:28;;;;;;;13.70;5.82;;;;;;;6.94;100.00;101486.38;6292415;22;20015;-67
2023/03/16 09:01:55;;;;;;;13.98;5.70;;;;;;;6.99;100.00;101489.72;6292872;22;20442;-69
2023/03/16 09:04:20;;;;;;;11.52;5.00;;;;;;;6.89;100.00;101481.25;6292361;22;20015;-70
2023/03/16 09:06:47;;;;;;;11.55;5.53;;;;;;;7.13;100.00;101475.91;6264547;22;20030;-68
2023/03/16 09:09:12;;;;;;;13.70;5.68;;;;;;;7.05;100.00;101473.56;6292019;22;20011;-69
2023/03/16 09:11:39;;;;;;;9.93;4.88;;;;;;;7.02;100.00;101468.38;6292577;22;20018;-67
2023/03/16 09:14:05;;;;;;;13.25;6.25;;;;;;;7.24;100.00;101473.72;6292549;22;20076;-71
2023/03/16 09:16:31;;;;;;;8.10;4.95;;;;;;;7.42;100.00;101470.31;6293572;22;20011;-68
2023/03/16 09:18:57;;;;;;;12.07;5.65;;;;;;;7.09;100.00;101466.38;6292189;22;20617;-67
2023/03/16 09:21:22;;;;;;;14.02;6.10;;;;;;;7.00;100.00;101455.19;6265810;22;20011;-69
2023/03/16 09:23:48;;;;;;;9.60;4.82;;;;;;;6.65;100.00;101451.22;6293175;22;20057;-66
2023/03/16 09:26:14;;;;;;;8.73;5.35;;;;;;;6.87;100.00;101450.41;6293354;22;20030;-69
2023/03/16 09:28:40;;;;;;;13.27;4.60;;;;;;;6.78;100.00;101449.00;6292777;22;20486;-69
2023/03/16 09:31:07;;;;;;;11.07;4.95;;;;;;;6.98;100.00;101442.94;6292623;22;20025;-71
2023/03/16 09:33:34;;;;;;;11.55;4.68;;;;;;;7.20;100.00;101442.94;6263967;22;20350;-70
2023/03/16 09:36:00;;;;;;;18.75;7.22;;;;;;;7.40;100.00;101444.78;6292034;22;20022;-70
2023/03/16 09:38:27;;;;;;;7.88;4.35;;;;;;;7.29;100.00;101445.22;6264474;22;20437;-69
2023/03/16 09:41:28;;;;;;;8.65;5.05;;;;;;;7.44;100.00;101436.66;6292286;22;20636;-70
2023/03/16 09:44:28;;;;;;;8.90;4.80;;;;;;;7.67;100.00;101448.09;6229270;22;20037;-68
2023/03/16 09:46:55;;;;;;;8.52;4.93;;;;;;;7.55;100.00;101444.16;6292677;22;20054;-68
2023/03/16 09:49:26;;;;;;;11.18;5.15;;;;;;;7.66;100.00;101433.97;6292693;22;20007;-69
2023/03/16 09:52:22;;;;;;;10.88;5.25;;;;;;;8.19;100.00;101436.13;6291672;22;20410;-69
2023/03/16 09:54:58;;;;;;;8.20;4.35;;;;;;;8.17;100.00;101431.78;6292492;22;20011;-68
2023/03/16 09:57:35;;;;;;;7.70;4.93;;;;;;;8.27;100.00;101433.97;6292780;22;20023;-68
2023/03/16 10:00:21;;;;;;;11.43;5.18;;;;;;;8.70;100.00;101432.09;6263666;22;20019;-68
2023/03/16 10:03:20;;;;;;;7.38;5.07;;;;;;;8.40;100.00;101418.41;6291955;22;20022;-69
2023/03/16 10:05:51;;;;;;;11.82;5.45;;;;;;;9.05;100.00;101422.44;6292011;22;20019;-69
2023/03/16 10:08:27;;;;;;;9.50;4.68;;;;;;;8.77;100.00;101424.66;6291773;22;20028;-68
2023/03/16 10:11:17;;;;;;;10.18;4.90;;;;;;;8.62;100.00;101428.03;6292278;22;20050;-69
2023/03/16 10:13:55;;;;;;;8.73;4.15;;;;;;;8.25;100.00;101422.56;6265454;22;20015;-70
2023/03/16 10:16:38;;;;;;;8.52;5.18;;;;;;;8.53;100.00;101411.59;6292377;22;20043;-68
2023/03/16 10:19:17;;;;;;;10.60;4.57;;;;;;;8.49;100.00;101415.31;6293114;22;20088;-69
2023/03/16 10:21:43;;;;;;;12.77;5.13;;;;;;;8.41;100.00;101400.66;6292295;22;20095;-70
2023/03/16 10:24:25;;;;;;;10.50;4.60;;;;;;;8.72;100.00;101400.09;6264832;22;20019;-69
2023/03/16 10:26:59;;;;;;;9.63;4.30;;;;;;;8.79;100.00;101401.56;6292541;22;20021;-69
2023/03/16 10:29:29;;;;;;;13.50;5.50;;;;;;;9.16;100.00;101407.78;6292788;22;20086;-68
2023/03/16 10:32:06;;;;;;;9.52;4.97;;;;;;;8.94;100.00;101392.84;6292411;22;20123;-69
2023/03/16 10:34:32;;;;;;;9.55;4.72;;;;;;;8.97;100.00;101405.13;6292171;22;20015;-69
2023/03/16 10:36:57;;;;;;;9.57;4.85;;;;;;;8.75;100.00;101398.16;6291151;22;20023;-69
2023/03/16 10:39:23;;;;;;;10.23;4.32;;;;;;;9.00;100.00;101402.31;6291363;22;20845;-69
2023/03/16 10:41:56;;;;;;;8.50;3.92;;;;;;;9.73;100.00;101390.69;6291368;22;20016;-69
2023/03/16 10:44:25;;;;;;;4.20;3.20;;;;;;;8.99;97.69;101384.66;6291492;22;20442;-69
2023/03/16 10:47:26;;;;;;;9.85;4.82;;;;;;;10.07;96.28;101386.28;6263716;22;20020;-69
2023/03/16 10:49:52;;;;;;;10.13;4.30;;;;;;;10.89;93.56;101378.28;6291184;22;20427;-70
2023/03/16 10:52:23;;;;;;;8.98;4.78;;;;;;;10.86;91.01;101370.47;6290660;22;20061;-71
2023/03/16 10:54:54;;;;;;;10.80;4.97;;;;;;;10.78;93.49;101372.69;6291386;22;20442;-67
2023/03/16 10:57:32;;;;;;;7.53;3.83;;;;;;;11.11;88.66;101369.94;6291931;22;20112;-69
2023/03/16 11:00:11;;;;;;;6.72;3.80;;;;;;;11.37;87.99;101366.63;6290620;22;20019;-69
2023/03/16 11:02:38;;;;;;;13.13;4.90;;;;;;;11.05;85.48;101362.28;6291253;22;20070;-68
2023/03/16 11:05:19;;;;;;;10.77;4.07;;;;;;;11.37;89.13;101365.78;6291564;22;20074;-70
2023/03/16 11:08:14;;;;;;;9.45;4.28;;;;;;;11.34;88.76;101366.78;6290808;22;20051;-69
2023/03/16 11:11:07;;;;;;;7.82;3.85;;;;;;;11.60;85.14;101349.25;6290372;22;20140;-68
2023/03/16 11:13:36;;;;;;;10.43;4.75;;;;;;;11.92;86.29;101338.47;6263211;22;20038;-69
2023/03/16 11:16:26;;;;;;;7.45;4.53;;;;;;;11.78;85.60;101341.94;6291624;22;20489;-69
2023/03/16 11:19:17;;;;;;;9.73;3.90;;;;;;;11.68;84.47;101354.13;6291246;22;20495;-69
2023/03/16 11:21:49;;;;;;;7.10;3.88;;;;;;;11.36;81.60;101348.03;6290934;22;20049;-69
2023/03/16 11:24:25;;;;;;;9.90;4.80;;;;;;;11.69;82.56;101353.16;6291676;22;20030;-69
2023/03/16 11:26:57;;;;;;;5.10;3.15;;;;;;;11.58;80.75;101342.28;6264379;22;20081;-68
2023/03/16 11:29:34;;;;;;;;;;;;;;;11.74;80.99;101337.72;6292945;22;20015;-69
2023/03/16 11:32:02;;;;;;;8.05;3.60;;;;;;;11.77;78.40;101320.66;6292607;22;19910;-69
2023/03/16 11:34:31;;;;;;;11.57;3.38;;;;;;;11.87;79.48;101325.38;6291974;22;20122;-69
2023/03/16 11:37:15;;;;;;;10.50;3.80;;;;;;;12.30;78.75;101319.19;6291779;22;20603;-69
2023/03/16 11:40:13;;;;;;;5.68;3.35;;;;;;;12.55;80.40;101323.81;6291716;22;20018;-69